createdAt,value
2023-08-25T00:00:18.045Z,80.99
2023-08-25T00:02:49.002Z,81.12
2023-08-25T00:05:20.505Z,81.07
2023-08-25T00:07:51.595Z,81.25
2023-08-25T00:10:22.393Z,81.39
2023-08-25T00:12:53.423Z,81.33
2023-08-25T00:15:24.957Z,81.33
2023-08-25T00:17:59.417Z,81.37
2023-08-25T00:20:32.163Z,81.42
2023-08-25T00:23:03.559Z,81.17
2023-08-25T00:25:34.892Z,81.18
2023-08-25T00:28:05.580Z,81.23
2023-08-25T00:30:35.517Z,81.16
2023-08-25T00:33:06.397Z,81.32
2023-08-25T00:35:37.618Z,81.38
2023-08-25T00:38:09.018Z,81.53
2023-08-25T00:40:40.292Z,81.67
2023-08-25T00:43:13.336Z,81.74
2023-08-25T00:45:45.001Z,81.78
2023-08-25T00:48:16.127Z,81.87
2023-08-25T00:50:47.467Z,81.63
2023-08-25T00:53:18.437Z,81.69
2023-08-25T00:55:48.832Z,81.59
2023-08-25T00:58:21.254Z,81.61
2023-08-25T01:00:54.106Z,81.48
2023-08-25T01:03:27.672Z,81.52
2023-08-25T01:05:59.095Z,81.45
2023-08-25T01:08:31.990Z,81.56
2023-08-25T01:11:24.700Z,81.72
2023-08-25T01:14:21.905Z,81.54
2023-08-25T01:17:10.772Z,81.40
2023-08-25T01:19:59.653Z,81.10
2023-08-25T01:22:54.422Z,81.29
2023-08-25T01:25:32.886Z,81.19
2023-08-25T01:28:07.068Z,81.16
2023-08-25T01:30:38.690Z,81.06
2023-08-25T01:33:09.166Z,80.88
2023-08-25T01:35:56.090Z,81.00
2023-08-25T01:38:58.533Z,81.12
2023-08-25T01:41:50.043Z,81.16
2023-08-25T01:44:26.213Z,80.91
2023-08-25T01:47:09.341Z,81.02
2023-08-25T01:49:41.552Z,80.77
2023-08-25T01:52:15.565Z,80.93
2023-08-25T01:54:46.948Z,80.98
2023-08-25T01:57:18.927Z,80.94
2023-08-25T01:59:49.493Z,80.96
2023-08-25T02:02:19.796Z,80.97
2023-08-25T02:04:51.423Z,80.94
2023-08-25T02:07:21.856Z,80.88
2023-08-25T02:09:55.958Z,80.91
2023-08-25T02:12:26.431Z,80.97
2023-08-25T02:14:57.329Z,81.00
2023-08-25T02:17:28.068Z,81.17
2023-08-25T02:19:59.528Z,81.43
2023-08-25T02:22:31.953Z,81.49
2023-08-25T02:25:02.415Z,81.45
2023-08-25T02:27:32.791Z,81.36
2023-08-25T02:30:02.814Z,81.32
2023-08-25T02:32:33.143Z,81.43
2023-08-25T02:35:07.891Z,81.46
2023-08-25T02:37:39.661Z,81.61
2023-08-25T02:40:10.970Z,81.65
2023-08-25T02:42:41.620Z,81.98
2023-08-25T02:45:12.161Z,82.08
2023-08-25T02:47:45.618Z,82.06
2023-08-25T02:50:16.777Z,82.16
2023-08-25T02:52:47.743Z,82.14
2023-08-25T02:55:21.988Z,82.26
2023-08-25T02:57:54.645Z,82.12
2023-08-25T03:00:26.980Z,82.17
2023-08-25T03:02:59.357Z,82.09
2023-08-25T03:05:30.519Z,81.97
2023-08-25T03:08:01.724Z,81.84
2023-08-25T03:10:33.964Z,81.77
2023-08-25T03:13:07.576Z,81.57
2023-08-25T03:15:39.687Z,81.56
2023-08-25T03:18:12.860Z,81.40
2023-08-25T03:20:43.733Z,81.36
2023-08-25T03:23:14.217Z,81.31
2023-08-25T03:25:45.078Z,81.33
2023-08-25T03:28:16.310Z,81.45
2023-08-25T03:30:48.764Z,81.40
2023-08-25T03:33:19.234Z,81.37
2023-08-25T03:35:50.389Z,81.55
2023-08-25T03:38:22.978Z,81.73
2023-08-25T03:41:01.188Z,81.95
2023-08-25T03:43:31.794Z,81.87
2023-08-25T03:46:02.231Z,81.92
2023-08-25T03:48:34.646Z,82.09
2023-08-25T03:51:05.706Z,82.26
2023-08-25T03:53:37.081Z,82.26
2023-08-25T03:56:08.082Z,82.42
2023-08-25T03:58:40.214Z,82.47
2023-08-25T04:01:11.855Z,82.67
2023-08-25T04:03:43.288Z,82.70
2023-08-25T04:06:14.261Z,82.83
2023-08-25T04:08:46.368Z,83.03
2023-08-25T04:11:17.281Z,82.83
2023-08-25T04:13:48.108Z,82.77
2023-08-25T04:16:19.362Z,82.82
2023-08-25T04:18:51.897Z,82.70
2023-08-25T04:21:22.727Z,82.84
2023-08-25T04:23:53.258Z,82.94
2023-08-25T04:26:24.960Z,82.92
2023-08-25T04:28:55.580Z,83.00
2023-08-25T04:31:26.169Z,83.03
2023-08-25T04:34:01.697Z,83.18
2023-08-25T04:36:34.187Z,83.34
2023-08-25T04:39:05.205Z,83.31
2023-08-25T04:41:38.356Z,83.30
2023-08-25T04:44:08.911Z,83.34
2023-08-25T04:46:41.486Z,83.37
2023-08-25T04:49:13.637Z,83.52
2023-08-25T04:51:44.588Z,83.45
2023-08-25T04:54:15.429Z,83.39
2023-08-25T04:56:49.833Z,83.30
2023-08-25T04:59:22.208Z,83.22
2023-08-25T05:01:53.563Z,83.16
2023-08-25T05:04:25.806Z,83.15
2023-08-25T05:06:57.528Z,83.15
2023-08-25T05:09:28.934Z,83.27
2023-08-25T05:11:59.281Z,83.00
2023-08-25T05:14:30.102Z,83.23
2023-08-25T05:17:01.115Z,83.33
2023-08-25T05:19:33.242Z,83.26
2023-08-25T05:22:04.309Z,83.21
2023-08-25T05:24:35.413Z,83.19
2023-08-25T05:27:05.911Z,83.18
2023-08-25T05:29:38.403Z,83.12
2023-08-25T05:32:18.314Z,83.05
2023-08-25T05:34:57.452Z,83.14
2023-08-25T05:37:28.699Z,83.18
2023-08-25T05:40:00.718Z,83.16
2023-08-25T05:42:40.469Z,83.32
2023-08-25T05:45:12.591Z,83.51
2023-08-25T05:47:43.520Z,83.50
2023-08-25T05:50:15.288Z,83.45
2023-08-25T05:52:48.053Z,83.43
2023-08-25T05:55:19.861Z,83.40
2023-08-25T05:57:50.449Z,83.43
2023-08-25T06:00:21.329Z,83.42
2023-08-25T06:02:51.650Z,83.39
2023-08-25T06:05:22.253Z,83.36
2023-08-25T06:07:53.074Z,83.34
2023-08-25T06:10:23.719Z,83.37
2023-08-25T06:12:54.229Z,83.56
2023-08-25T06:15:25.404Z,83.56
2023-08-25T06:17:57.270Z,83.60
2023-08-25T06:20:28.708Z,83.60
2023-08-25T06:23:01.000Z,83.73
2023-08-25T06:25:32.122Z,83.73
2023-08-25T06:28:03.163Z,83.80
2023-08-25T06:30:34.995Z,83.87
2023-08-25T06:33:05.932Z,83.94
2023-08-25T06:35:36.793Z,83.95
2023-08-25T06:38:07.600Z,84.10
2023-08-25T06:40:39.035Z,84.15
2023-08-25T06:43:09.448Z,84.17
2023-08-25T06:45:42.072Z,84.26
2023-08-25T06:48:13.438Z,84.28
2023-08-25T06:50:44.669Z,84.24
2023-08-25T06:53:16.792Z,84.12
2023-08-25T06:55:47.876Z,84.05
2023-08-25T06:58:18.554Z,83.97
2023-08-25T07:00:49.979Z,84.01
2023-08-25T07:03:21.000Z,84.10
2023-08-25T07:05:52.566Z,83.99
2023-08-25T07:08:24.642Z,83.94
2023-08-25T07:10:55.345Z,83.84
2023-08-25T07:13:26.466Z,83.78
2023-08-25T07:15:56.836Z,83.76
2023-08-25T07:18:27.926Z,83.95
2023-08-25T07:20:58.547Z,83.71
2023-08-25T07:23:28.936Z,83.70
2023-08-25T07:26:00.817Z,83.63
2023-08-25T07:28:31.300Z,83.73
2023-08-25T07:31:03.085Z,83.83
2023-08-25T07:33:33.817Z,83.77
2023-08-25T07:36:09.993Z,83.82
2023-08-25T07:38:42.497Z,83.86
2023-08-25T07:41:14.964Z,83.84
2023-08-25T07:43:47.268Z,83.96
2023-08-25T07:46:18.494Z,83.99
2023-08-25T07:48:50.137Z,84.01
2023-08-25T07:51:34.238Z,84.04
2023-08-25T07:54:10.235Z,84.16
2023-08-25T07:56:41.582Z,84.16
2023-08-25T07:59:12.802Z,84.11
2023-08-25T08:01:43.436Z,84.14
2023-08-25T08:04:13.915Z,84.12
2023-08-25T08:06:44.389Z,84.23
2023-08-25T08:09:15.715Z,84.13
2023-08-25T08:11:46.510Z,84.26
2023-08-25T08:14:16.811Z,84.34
2023-08-25T08:16:47.368Z,84.36
2023-08-25T08:19:17.778Z,84.42
2023-08-25T08:21:49.616Z,84.48
2023-08-25T08:24:20.080Z,84.39
2023-08-25T08:26:51.333Z,84.32
2023-08-25T08:29:22.976Z,84.47
2023-08-25T08:31:53.573Z,84.44
2023-08-25T08:34:24.693Z,84.44
2023-08-25T08:36:55.418Z,84.38
2023-08-25T08:39:27.385Z,84.32
2023-08-25T08:41:59.965Z,84.19
2023-08-25T08:44:33.619Z,84.15
2023-08-25T08:47:08.488Z,84.19
2023-08-25T08:49:40.637Z,84.10
2023-08-25T08:52:12.601Z,84.05
2023-08-25T08:54:46.540Z,83.88
2023-08-25T08:57:18.925Z,83.75
2023-08-25T08:59:49.510Z,83.64
2023-08-25T09:02:21.465Z,83.66
2023-08-25T09:04:56.429Z,83.64
2023-08-25T09:07:33.753Z,83.63
2023-08-25T09:10:05.036Z,83.59
2023-08-25T09:12:37.493Z,83.58
2023-08-25T09:15:10.751Z,83.44
2023-08-25T09:17:41.982Z,83.42
2023-08-25T09:20:14.364Z,83.52
2023-08-25T09:22:53.056Z,83.42
2023-08-25T09:25:24.533Z,83.27
2023-08-25T09:28:12.974Z,83.60
2023-08-25T09:30:47.594Z,83.39
2023-08-25T09:33:18.313Z,83.33
2023-08-25T09:35:49.653Z,83.32
2023-08-25T09:38:26.577Z,83.29
2023-08-25T09:40:57.907Z,83.25
2023-08-25T09:43:33.102Z,83.17
2023-08-25T09:46:04.349Z,83.08
2023-08-25T09:48:35.898Z,83.02
2023-08-25T09:51:09.880Z,82.99
2023-08-25T09:53:42.769Z,82.96
2023-08-25T09:56:18.215Z,82.88
2023-08-25T09:58:51.672Z,82.92
2023-08-25T10:01:23.058Z,82.86
2023-08-25T10:03:55.269Z,82.83
2023-08-25T10:06:26.114Z,82.91
2023-08-25T10:08:58.501Z,82.69
2023-08-25T10:11:34.553Z,82.73
2023-08-25T10:14:08.251Z,82.73
2023-08-25T10:16:42.114Z,82.62
2023-08-25T10:19:19.835Z,82.47
2023-08-25T10:21:53.685Z,82.20
2023-08-25T10:24:26.911Z,82.13
2023-08-25T10:26:58.080Z,81.67
2023-08-25T10:29:30.127Z,81.65
2023-08-25T10:32:07.389Z,81.42
2023-08-25T10:34:55.625Z,81.37
2023-08-25T10:37:30.325Z,81.47
2023-08-25T10:40:10.676Z,81.32
2023-08-25T10:42:42.570Z,81.10
2023-08-25T10:45:14.778Z,80.83
2023-08-25T10:47:50.503Z,80.85
2023-08-25T10:50:25.198Z,80.78
2023-08-25T10:52:57.978Z,80.81
2023-08-25T10:55:35.639Z,79.79
2023-08-25T10:58:07.822Z,68.67
2023-08-25T11:00:45.830Z,62.99
2023-08-25T11:03:18.367Z,59.43
2023-08-25T11:05:49.563Z,57.66
2023-08-25T11:08:29.912Z,59.64
2023-08-25T11:11:17.890Z,62.77
2023-08-25T11:13:48.580Z,64.97
2023-08-25T11:16:19.761Z,66.45
2023-08-25T11:18:50.680Z,68.13
2023-08-25T11:21:25.643Z,67.82
2023-08-25T11:23:59.702Z,67.54
2023-08-25T11:26:32.027Z,68.61
2023-08-25T11:29:03.542Z,67.18
2023-08-25T11:31:34.732Z,67.92
2023-08-25T11:34:05.468Z,66.89
2023-08-25T11:36:35.926Z,66.76
2023-08-25T11:39:06.467Z,65.97
2023-08-25T11:41:36.730Z,64.91
2023-08-25T11:44:09.588Z,64.77
2023-08-25T11:46:41.079Z,64.44
2023-08-25T11:49:12.603Z,64.92
2023-08-25T11:51:44.100Z,63.64
2023-08-25T11:54:14.798Z,63.69
2023-08-25T11:56:53.214Z,62.75
2023-08-25T11:59:25.884Z,61.71
2023-08-25T12:02:04.880Z,62.24
2023-08-25T12:04:36.687Z,62.50
2023-08-25T12:07:07.644Z,59.78
2023-08-25T12:09:38.654Z,59.32
2023-08-25T12:12:09.974Z,59.72
2023-08-25T12:14:42.751Z,60.28
2023-08-25T12:17:30.585Z,59.91
2023-08-25T12:20:01.243Z,58.95
2023-08-25T12:22:32.472Z,57.62
2023-08-25T12:25:03.569Z,56.16
2023-08-25T12:27:34.496Z,57.07
2023-08-25T12:30:04.829Z,58.49
2023-08-25T12:32:35.992Z,57.96
2023-08-25T12:35:07.922Z,60.20
2023-08-25T12:37:39.298Z,60.14
2023-08-25T12:40:10.577Z,60.08
2023-08-25T12:42:42.319Z,60.11
2023-08-25T12:45:13.486Z,58.67
2023-08-25T12:47:44.887Z,61.19
2023-08-25T12:50:15.936Z,58.53
2023-08-25T12:52:46.393Z,60.95
2023-08-25T12:55:22.025Z,59.28
2023-08-25T12:57:53.556Z,59.51
2023-08-25T13:00:24.747Z,60.13
2023-08-25T13:02:55.140Z,61.80
2023-08-25T13:05:26.645Z,60.67
2023-08-25T13:07:57.068Z,62.26
2023-08-25T13:10:29.348Z,62.19
2023-08-25T13:13:01.882Z,60.07
2023-08-25T13:15:35.636Z,59.74
2023-08-25T13:18:06.782Z,58.03
2023-08-25T13:20:37.452Z,58.66
2023-08-25T13:23:14.925Z,61.76
2023-08-25T13:25:52.672Z,61.04
2023-08-25T13:28:22.939Z,58.72
2023-08-25T13:30:53.731Z,60.34
2023-08-25T13:33:24.926Z,59.96
2023-08-25T13:35:57.416Z,61.53
2023-08-25T13:38:29.058Z,59.42
2023-08-25T13:41:00.197Z,59.04
2023-08-25T13:43:31.194Z,56.57
2023-08-25T13:46:02.534Z,60.85
2023-08-25T13:48:33.220Z,59.79
2023-08-25T13:51:04.003Z,57.55
2023-08-25T13:53:34.585Z,58.74
2023-08-25T13:56:06.073Z,61.20
2023-08-25T13:58:37.868Z,58.80
2023-08-25T14:01:08.522Z,60.61
2023-08-25T14:03:39.777Z,60.34
2023-08-25T14:06:12.309Z,57.00
2023-08-25T14:08:45.170Z,57.69
2023-08-25T14:11:15.579Z,59.48
2023-08-25T14:13:46.745Z,59.53
2023-08-25T14:16:17.987Z,59.54
2023-08-25T14:19:46.790Z,59.32
2023-08-25T14:22:17.351Z,60.31
2023-08-25T14:24:49.090Z,59.15
2023-08-25T14:27:19.720Z,58.82
2023-08-25T14:29:50.355Z,56.18
2023-08-25T14:32:20.929Z,59.78
2023-08-25T14:34:51.508Z,56.93
2023-08-25T14:37:22.302Z,57.24
2023-08-25T14:39:52.876Z,55.76
2023-08-25T14:42:23.888Z,59.25
2023-08-25T14:44:56.599Z,59.85
2023-08-25T14:47:28.533Z,58.18
2023-08-25T14:49:59.201Z,58.39
2023-08-25T14:52:29.252Z,58.09
2023-08-25T14:55:00.479Z,57.50
2023-08-25T14:57:30.903Z,59.55
2023-08-25T15:00:05.190Z,59.05
2023-08-25T15:02:35.758Z,58.23
2023-08-25T15:05:08.060Z,58.71
2023-08-25T15:07:38.624Z,59.99
2023-08-25T15:10:10.605Z,57.43
2023-08-25T15:12:41.180Z,58.25
2023-08-25T15:15:12.638Z,59.49
2023-08-25T15:17:44.044Z,58.49
2023-08-25T15:20:15.970Z,58.99
2023-08-25T15:22:47.857Z,59.91
2023-08-25T15:25:19.032Z,59.27
2023-08-25T15:27:49.863Z,57.80
2023-08-25T15:30:20.813Z,59.42
2023-08-25T15:32:51.814Z,60.79
2023-08-25T15:35:23.344Z,58.16
2023-08-25T15:37:54.299Z,60.88
2023-08-25T15:40:25.649Z,60.91
2023-08-25T15:42:56.354Z,58.48
2023-08-25T15:45:26.637Z,59.30
2023-08-25T15:47:58.171Z,60.36
2023-08-25T15:50:29.366Z,59.32
2023-08-25T15:53:01.887Z,60.84
2023-08-25T15:55:33.462Z,60.05
2023-08-25T15:58:04.570Z,60.18
2023-08-25T16:00:35.040Z,62.04
2023-08-25T16:03:05.946Z,60.21
2023-08-25T16:05:36.373Z,61.04
2023-08-25T16:08:07.319Z,60.43
2023-08-25T16:10:37.747Z,61.32
2023-08-25T16:13:08.716Z,61.17
2023-08-25T16:15:55.563Z,61.31
2023-08-25T16:18:30.037Z,61.10
2023-08-25T16:21:07.546Z,63.29
2023-08-25T16:23:41.983Z,63.80
2023-08-25T16:26:13.284Z,63.99
2023-08-25T16:28:43.733Z,65.06
2023-08-25T16:31:17.315Z,63.57
2023-08-25T16:33:48.775Z,64.50
2023-08-25T16:36:19.744Z,66.90
2023-08-25T16:38:50.045Z,66.14
2023-08-25T16:41:20.264Z,65.59
2023-08-25T16:43:55.330Z,66.56
2023-08-25T16:46:27.847Z,65.82
2023-08-25T16:48:58.118Z,67.77
2023-08-25T16:51:28.896Z,65.99
2023-08-25T16:54:00.414Z,67.62
2023-08-25T16:56:30.814Z,67.03
2023-08-25T17:08:10.871Z,69.36
2023-08-25T17:10:42.743Z,66.84
2023-08-25T17:13:13.393Z,69.21
2023-08-25T17:15:44.417Z,66.78
2023-08-25T17:18:14.772Z,66.86
2023-08-25T17:20:46.135Z,66.67
2023-08-25T17:23:16.835Z,65.01
2023-08-25T17:25:48.195Z,64.65
2023-08-25T17:28:18.794Z,62.86
2023-08-25T17:30:49.267Z,65.47
2023-08-25T17:33:19.966Z,63.47
2023-08-25T17:35:50.418Z,62.46
2023-08-25T17:38:21.008Z,63.31
2023-08-25T17:40:51.613Z,65.01
2023-08-25T17:43:22.119Z,61.03
2023-08-25T17:45:52.826Z,61.61
2023-08-25T17:48:23.359Z,59.70
2023-08-25T17:50:54.389Z,61.13
2023-08-25T17:53:26.555Z,55.87
2023-08-25T17:55:58.600Z,52.43
2023-08-25T17:58:29.791Z,50.59
2023-08-25T18:01:01.999Z,51.58
2023-08-25T18:03:33.199Z,50.81
2023-08-25T18:06:07.248Z,53.82
2023-08-25T18:08:41.204Z,46.04
2023-08-25T18:11:11.654Z,50.18
2023-08-25T18:13:41.696Z,50.44
2023-08-25T18:16:12.744Z,52.80
2023-08-25T18:18:43.961Z,52.43
2023-08-25T18:21:14.682Z,52.55
2023-08-25T18:23:45.317Z,50.68
2023-08-25T18:26:17.488Z,52.59
2023-08-25T18:28:47.917Z,49.29
2023-08-25T18:31:19.261Z,49.13
2023-08-25T18:33:50.598Z,53.25
2023-08-25T18:36:23.090Z,49.40
2023-08-25T18:38:54.807Z,48.07
2023-08-25T18:41:27.301Z,50.87
2023-08-25T18:43:58.162Z,47.38
2023-08-25T18:46:29.834Z,49.48
2023-08-25T18:49:00.961Z,52.12
2023-08-25T18:51:32.701Z,49.40
2023-08-25T18:54:03.335Z,53.30
2023-08-25T18:56:35.577Z,52.24
2023-08-25T18:59:07.636Z,48.24
2023-08-25T19:01:38.130Z,53.33
2023-08-25T19:04:08.828Z,51.53
2023-08-25T19:06:40.349Z,55.70
2023-08-25T19:09:11.229Z,56.72
2023-08-25T19:11:42.148Z,47.87
2023-08-25T19:14:12.809Z,49.01
2023-08-25T19:16:44.247Z,52.30
2023-08-25T19:19:15.492Z,51.07
2023-08-25T19:21:45.942Z,50.04
2023-08-25T19:24:16.542Z,51.15
2023-08-25T19:26:47.492Z,48.24
2023-08-25T19:29:18.953Z,52.74
2023-08-25T19:31:49.312Z,53.51
2023-08-25T19:34:20.240Z,52.63
2023-08-25T19:36:52.424Z,50.18
2023-08-25T19:39:24.893Z,52.28
2023-08-25T19:41:55.446Z,53.24
2023-08-25T19:44:26.970Z,55.93
2023-08-25T19:46:57.411Z,54.49
2023-08-25T19:49:28.405Z,54.95
2023-08-25T19:51:58.991Z,53.99
2023-08-25T19:54:29.554Z,53.57
2023-08-25T19:57:01.273Z,55.23
2023-08-25T19:59:32.598Z,58.63
2023-08-25T20:02:03.672Z,55.53
2023-08-25T20:04:35.103Z,55.63
2023-08-25T20:07:05.926Z,54.68
2023-08-25T20:09:38.089Z,57.34
2023-08-25T20:12:09.592Z,55.87
2023-08-25T20:14:40.417Z,58.02
2023-08-25T20:17:11.037Z,56.76
2023-08-25T20:19:43.636Z,54.91
2023-08-25T20:22:14.060Z,56.59
2023-08-25T20:24:45.715Z,57.52
2023-08-25T20:27:16.707Z,57.37
2023-08-25T20:29:47.969Z,56.99
2023-08-25T20:32:18.846Z,56.22
2023-08-25T20:34:51.244Z,59.57
2023-08-25T20:37:23.710Z,58.77
2023-08-25T20:39:55.155Z,57.41
2023-08-25T20:42:25.506Z,55.08
2023-08-25T20:44:57.579Z,59.14
2023-08-25T20:47:28.762Z,59.28
2023-08-25T20:49:59.068Z,58.11
2023-08-25T20:52:29.613Z,55.17
2023-08-25T20:55:02.744Z,55.29
2023-08-25T20:57:33.807Z,55.37
2023-08-25T21:00:04.795Z,56.83
2023-08-25T21:02:35.981Z,55.51
2023-08-25T21:05:06.805Z,56.33
2023-08-25T21:07:37.836Z,56.66
2023-08-25T21:10:09.317Z,56.20
2023-08-25T21:12:40.271Z,56.11
2023-08-25T21:15:12.150Z,56.37
2023-08-25T21:17:43.766Z,56.71
2023-08-25T21:20:14.674Z,56.54
2023-08-25T21:22:46.922Z,56.47
2023-08-25T21:25:17.448Z,56.59
2023-08-25T21:27:47.707Z,56.60
2023-08-25T21:30:18.402Z,57.21
2023-08-25T21:32:48.666Z,57.91
2023-08-25T21:35:19.862Z,58.45
2023-08-25T21:37:49.838Z,58.29
2023-08-25T21:40:20.136Z,58.61
2023-08-25T21:42:51.385Z,59.84
2023-08-25T21:45:22.713Z,60.12
2023-08-25T21:47:53.670Z,60.02
2023-08-25T21:50:25.076Z,59.29
2023-08-25T21:52:55.865Z,59.12
2023-08-25T21:55:27.120Z,58.85
2023-08-25T21:57:58.086Z,58.45
2023-08-25T22:00:29.500Z,58.69
2023-08-25T22:03:00.265Z,58.28
2023-08-25T22:05:31.239Z,57.79
2023-08-25T22:08:02.004Z,58.75
2023-08-25T22:10:37.933Z,58.52
2023-08-25T22:13:08.176Z,59.32
2023-08-25T22:15:39.058Z,58.57
2023-08-25T22:18:09.752Z,58.09
2023-08-25T22:20:40.183Z,58.29
2023-08-25T22:23:11.423Z,57.89
2023-08-25T22:25:43.313Z,57.81
2023-08-25T22:28:14.700Z,58.26
2023-08-25T22:30:47.850Z,57.90
2023-08-25T22:35:55.070Z,58.51
2023-08-25T22:38:32.970Z,58.72
2023-08-25T22:41:04.983Z,58.70
2023-08-25T22:44:02.900Z,58.56
2023-08-25T22:47:01.519Z,58.90
2023-08-25T22:49:38.537Z,58.85
2023-08-25T22:52:09.920Z,59.93
2023-08-25T22:54:40.630Z,61.12
2023-08-25T22:57:12.459Z,61.41
2023-08-25T22:59:44.956Z,62.02
2023-08-25T23:02:16.890Z,62.24
2023-08-25T23:04:49.411Z,62.83
2023-08-25T23:07:20.039Z,63.16
2023-08-25T23:09:51.525Z,64.43
2023-08-25T23:12:22.773Z,64.58
2023-08-25T23:14:54.387Z,65.66
2023-08-25T23:17:32.964Z,66.04
2023-08-25T23:20:04.588Z,66.60
2023-08-25T23:22:36.762Z,66.70
2023-08-25T23:25:08.465Z,66.72
2023-08-25T23:27:39.199Z,67.17
2023-08-25T23:30:14.074Z,68.52
2023-08-25T23:32:45.593Z,68.40
2023-08-25T23:38:00.322Z,69.10
2023-08-25T23:40:41.122Z,69.44
2023-08-25T23:43:13.811Z,69.85
2023-08-25T23:45:44.973Z,70.30
2023-08-25T23:48:15.648Z,70.91
2023-08-25T23:50:48.648Z,71.00
2023-08-25T23:56:44.981Z,71.11
2023-08-25T23:59:20.498Z,71.17
